createdAt,value
2022-08-04T00:01:48.043Z,45.62
2022-08-04T00:04:19.572Z,45.77
2022-08-04T00:06:55.883Z,45.58
2022-08-04T00:09:29.936Z,46.01
2022-08-04T00:11:59.344Z,45.81
2022-08-04T00:14:27.579Z,46.26
2022-08-04T00:16:55.949Z,46.23
2022-08-04T00:19:26.916Z,46.34
2022-08-04T00:21:57.740Z,46.38
2022-08-04T00:24:27.651Z,46.74
2022-08-04T00:26:56.090Z,46.76
2022-08-04T00:29:24.405Z,46.87
2022-08-04T00:31:56.258Z,46.67
2022-08-04T00:34:26.534Z,46.82
2022-08-04T00:36:55.165Z,46.86
2022-08-04T00:39:23.923Z,46.87
2022-08-04T00:42:19.774Z,46.52
2022-08-04T00:44:55.074Z,46.96
2022-08-04T00:47:36.428Z,46.76
2022-08-04T00:50:06.969Z,47.47
2022-08-04T00:52:50.507Z,47.16
2022-08-04T00:55:29.383Z,47.05
2022-08-04T00:58:18.596Z,47.19
2022-08-04T01:00:50.664Z,47.27
2022-08-04T01:03:22.802Z,47.23
2022-08-04T01:05:58.637Z,47.52
2022-08-04T01:08:48.291Z,47.47
2022-08-04T01:11:25.700Z,47.68
2022-08-04T01:14:01.766Z,47.80
2022-08-04T01:16:30.030Z,47.55
2022-08-04T01:19:00.932Z,47.64
2022-08-04T01:21:51.036Z,47.63
2022-08-04T01:24:34.720Z,48.14
2022-08-04T01:27:04.196Z,47.93
2022-08-04T01:29:46.520Z,48.03
2022-08-04T01:32:19.221Z,47.68
2022-08-04T01:34:51.453Z,47.86
2022-08-04T01:37:27.568Z,47.66
2022-08-04T01:40:02.126Z,47.66
2022-08-04T01:42:31.601Z,48.29
2022-08-04T01:45:02.152Z,47.78
2022-08-04T01:47:30.801Z,48.21
2022-08-04T01:50:03.925Z,48.31
2022-08-04T01:52:31.956Z,48.24
2022-08-04T01:54:59.956Z,48.38
2022-08-04T01:57:38.153Z,48.68
2022-08-04T02:00:10.189Z,48.55
2022-08-04T02:02:38.226Z,48.78
2022-08-04T02:05:06.678Z,48.80
2022-08-04T02:07:56.947Z,48.42
2022-08-04T02:10:28.622Z,49.12
2022-08-04T02:13:01.793Z,48.94
2022-08-04T02:15:32.689Z,48.66
2022-08-04T02:18:05.453Z,48.79
2022-08-04T02:20:35.922Z,49.21
2022-08-04T02:23:05.722Z,48.69
2022-08-04T02:25:38.755Z,49.26
2022-08-04T02:28:14.042Z,49.30
2022-08-04T02:30:48.189Z,49.57
2022-08-04T02:33:19.612Z,49.52
2022-08-04T02:35:48.091Z,49.46
2022-08-04T02:38:25.349Z,49.68
2022-08-04T02:40:54.989Z,49.74
2022-08-04T02:43:51.495Z,49.99
2022-08-04T02:46:18.211Z,49.50
2022-08-04T02:48:47.829Z,49.31
2022-08-04T02:51:17.094Z,49.61
2022-08-04T02:53:45.455Z,50.01
2022-08-04T02:56:13.595Z,49.62
2022-08-04T02:58:41.657Z,50.04
2022-08-04T03:01:09.750Z,49.92
2022-08-04T03:03:41.844Z,49.70
2022-08-04T03:06:36.437Z,49.68
2022-08-04T03:09:21.471Z,50.17
2022-08-04T03:12:12.685Z,49.94
2022-08-04T03:15:10.093Z,50.14
2022-08-04T03:18:17.588Z,50.21
2022-08-04T03:21:11.669Z,50.23
2022-08-04T03:24:00.096Z,50.24
2022-08-04T03:26:47.493Z,50.12
2022-08-04T03:29:55.382Z,50.39
2022-08-04T03:33:00.604Z,50.50
2022-08-04T03:36:17.449Z,50.48
2022-08-04T03:38:59.226Z,50.71
2022-08-04T03:41:51.567Z,50.42
2022-08-04T03:44:43.037Z,50.78
2022-08-04T03:47:29.979Z,50.84
2022-08-04T03:50:24.238Z,50.34
2022-08-04T03:53:09.680Z,50.56
2022-08-04T03:55:47.032Z,50.37
2022-08-04T03:58:37.481Z,50.87
2022-08-04T04:01:11.718Z,50.79
2022-08-04T04:03:50.513Z,50.86
2022-08-04T04:06:40.621Z,50.43
2022-08-04T04:09:44.168Z,50.69
2022-08-04T04:12:43.143Z,50.76
2022-08-04T04:15:21.087Z,50.72
2022-08-04T04:18:14.531Z,50.96
2022-08-04T04:20:59.407Z,51.12
2022-08-04T04:23:43.103Z,50.78
2022-08-04T04:26:27.001Z,50.75
2022-08-04T04:29:16.757Z,50.93
2022-08-04T04:32:06.280Z,50.53
2022-08-04T04:34:46.070Z,50.71
2022-08-04T04:37:21.184Z,50.38
2022-08-04T04:39:57.097Z,50.51
2022-08-04T04:42:34.181Z,50.33
2022-08-04T04:45:14.141Z,50.49
2022-08-04T04:48:08.726Z,50.59
2022-08-04T04:50:44.784Z,50.62
2022-08-04T04:53:18.470Z,50.39
2022-08-04T04:55:49.052Z,50.37
2022-08-04T04:58:19.009Z,50.44
2022-08-04T05:00:57.185Z,50.45
2022-08-04T05:03:35.349Z,50.15
2022-08-04T05:06:12.242Z,50.23
2022-08-04T05:11:20.834Z,50.09
2022-08-04T05:14:37.280Z,49.77
2022-08-04T05:16:40.884Z,50.00
2022-08-04T05:19:14.270Z,49.89
2022-08-04T05:21:44.715Z,49.55
2022-08-04T05:24:14.394Z,49.70
2022-08-04T05:26:46.675Z,49.20
2022-08-04T05:29:18.029Z,48.91
2022-08-04T05:31:51.182Z,49.80
2022-08-04T05:34:22.156Z,48.69
2022-08-04T05:36:52.211Z,48.68
2022-08-04T05:39:21.734Z,48.59
2022-08-04T05:41:55.687Z,48.28
2022-08-04T05:44:26.510Z,47.66
2022-08-04T05:46:58.337Z,47.53
2022-08-04T05:49:27.331Z,47.42
2022-08-04T05:51:55.993Z,47.19
2022-08-04T05:54:23.880Z,46.84
2022-08-04T05:56:52.980Z,46.50
2022-08-04T05:59:25.612Z,46.14
2022-08-04T06:01:58.850Z,45.23
2022-08-04T06:04:29.345Z,44.69
2022-08-04T06:06:57.339Z,44.57
2022-08-04T06:09:25.375Z,43.52
2022-08-04T06:12:00.476Z,43.08
2022-08-04T06:14:34.166Z,41.12
2022-08-04T06:17:05.915Z,39.81
2022-08-04T06:19:58.487Z,38.54
2022-08-04T06:22:32.343Z,37.69
2022-08-04T06:25:00.475Z,36.64
2022-08-04T06:27:29.247Z,35.05
2022-08-04T06:29:57.629Z,33.79
2022-08-04T06:32:41.466Z,33.68
2022-08-04T06:35:10.493Z,32.76
2022-08-04T06:37:43.666Z,31.55
2022-08-04T06:40:30.692Z,30.43
2022-08-04T06:43:00.189Z,28.97
2022-08-04T06:45:28.421Z,28.39
2022-08-04T06:47:58.545Z,27.52
2022-08-04T06:51:29.205Z,27.61
2022-08-04T06:53:14.357Z,26.21
2022-08-04T06:55:42.736Z,25.47
2022-08-04T06:58:10.680Z,25.18
2022-08-04T07:00:40.477Z,24.99
2022-08-04T07:03:09.867Z,24.16
2022-08-04T07:05:37.827Z,23.98
2022-08-04T07:08:06.008Z,22.15
2022-08-04T07:10:34.044Z,21.91
2022-08-04T07:13:02.557Z,21.60
2022-08-04T07:15:30.486Z,20.94
2022-08-04T07:18:00.329Z,20.50
2022-08-04T07:20:32.968Z,20.30
2022-08-04T07:23:04.166Z,19.68
2022-08-04T07:26:00.463Z,19.00
2022-08-04T07:28:20.174Z,18.78
2022-08-04T07:30:48.867Z,18.28
2022-08-04T07:33:17.249Z,17.87
2022-08-04T07:36:09.018Z,18.10
2022-08-04T07:38:37.686Z,18.41
2022-08-04T07:44:02.849Z,17.71
2022-08-04T07:46:31.123Z,17.68
2022-08-04T07:49:00.979Z,18.03
2022-08-04T07:51:30.727Z,17.71
2022-08-04T07:53:59.037Z,17.62
2022-08-04T07:56:27.143Z,17.48
2022-08-04T07:58:55.609Z,17.31
2022-08-04T08:01:23.607Z,17.42
2022-08-04T08:03:51.988Z,17.39
2022-08-04T08:06:32.377Z,17.11
2022-08-04T08:09:13.433Z,16.97
2022-08-04T08:12:38.442Z,16.58
2022-08-04T08:14:30.839Z,16.30
2022-08-04T08:17:00.203Z,15.94
2022-08-04T08:19:28.212Z,15.32
2022-08-04T08:22:00.003Z,15.93
2022-08-04T08:24:30.153Z,15.06
2022-08-04T08:26:58.275Z,14.61
2022-08-04T08:29:26.836Z,15.12
2022-08-04T08:31:58.388Z,15.57
2022-08-04T08:34:28.598Z,14.43
2022-08-04T08:37:01.958Z,14.36
2022-08-04T08:39:36.302Z,14.01
2022-08-04T08:42:33.740Z,13.35
2022-08-04T08:45:41.169Z,13.43
2022-08-04T08:48:34.686Z,13.51
2022-08-04T08:51:08.996Z,13.92
2022-08-04T08:54:00.710Z,13.68
2022-08-04T08:56:35.527Z,13.88
2022-08-04T08:59:15.166Z,13.20
2022-08-04T09:01:52.403Z,11.78
2022-08-04T09:04:40.198Z,11.73
2022-08-04T09:07:15.144Z,11.74
2022-08-04T09:09:49.350Z,12.40
2022-08-04T09:12:25.882Z,11.09
2022-08-04T09:14:55.744Z,11.57
2022-08-04T09:17:29.044Z,12.39
2022-08-04T09:20:00.399Z,11.35
2022-08-04T09:22:33.084Z,11.75
2022-08-04T09:25:01.844Z,11.24
2022-08-04T09:27:37.302Z,11.07
2022-08-04T09:30:07.005Z,10.94
2022-08-04T09:32:38.154Z,10.40
2022-08-04T09:35:15.861Z,10.83
2022-08-04T09:37:46.684Z,9.90
2022-08-04T09:40:31.844Z,9.34
2022-08-04T09:43:16.363Z,9.48
2022-08-04T09:45:51.647Z,8.89
2022-08-04T09:48:27.179Z,9.27
2022-08-04T09:50:58.167Z,9.51
2022-08-04T09:53:39.078Z,8.90
2022-08-04T09:56:10.790Z,8.08
2022-08-04T09:58:51.460Z,8.88
2022-08-04T10:01:23.446Z,8.29
2022-08-04T10:03:53.503Z,8.60
2022-08-04T10:06:48.691Z,8.74
2022-08-04T10:09:29.464Z,8.21
2022-08-04T10:12:23.272Z,7.49
2022-08-04T10:14:55.026Z,8.57
2022-08-04T10:17:52.407Z,7.32
2022-08-04T10:20:44.822Z,7.81
2022-08-04T10:23:13.542Z,7.51
2022-08-04T10:26:05.277Z,7.75
2022-08-04T10:28:39.041Z,7.21
2022-08-04T10:31:10.680Z,7.76
2022-08-04T10:33:42.301Z,8.02
2022-08-04T10:36:10.998Z,8.22
2022-08-04T10:38:42.391Z,8.34
2022-08-04T10:41:12.864Z,7.34
2022-08-04T10:43:47.732Z,7.99
2022-08-04T10:46:18.580Z,7.78
2022-08-04T10:48:50.610Z,7.88
2022-08-04T10:51:23.116Z,7.80
2022-08-04T10:53:55.397Z,7.40
2022-08-04T10:56:25.174Z,7.15
2022-08-04T10:58:55.801Z,7.68
2022-08-04T11:01:59.634Z,7.62
2022-08-04T11:04:27.095Z,7.49
2022-08-04T11:07:15.503Z,9.00
2022-08-04T11:09:44.292Z,9.22
2022-08-04T11:12:16.671Z,8.79
2022-08-04T11:14:48.571Z,9.01
2022-08-04T11:17:21.177Z,9.27
2022-08-04T11:19:53.652Z,9.12
2022-08-04T11:22:26.184Z,8.39
2022-08-04T11:25:30.830Z,8.71
2022-08-04T11:28:09.429Z,7.79
2022-08-04T11:30:39.093Z,7.85
2022-08-04T11:33:22.562Z,8.36
2022-08-04T11:35:53.859Z,9.11
2022-08-04T11:38:24.137Z,9.33
2022-08-04T11:41:03.114Z,9.48
2022-08-04T11:44:02.302Z,9.66
2022-08-04T11:46:26.464Z,10.71
2022-08-04T11:48:59.551Z,11.62
2022-08-04T11:51:28.633Z,12.09
2022-08-04T11:53:57.272Z,12.05
2022-08-04T11:56:37.182Z,12.88
2022-08-04T11:59:07.566Z,13.29
2022-08-04T12:01:37.538Z,13.68
2022-08-04T12:04:09.227Z,13.84
2022-08-04T12:06:40.554Z,14.54
2022-08-04T12:09:14.463Z,13.93
2022-08-04T12:12:02.065Z,14.99
2022-08-04T12:14:35.082Z,14.88
2022-08-04T12:17:03.855Z,15.86
2022-08-04T12:19:53.884Z,16.15
2022-08-04T12:22:31.354Z,17.08
2022-08-04T12:25:01.487Z,17.24
2022-08-04T12:27:32.596Z,17.98
2022-08-04T12:30:57.969Z,18.10
2022-08-04T12:32:54.113Z,19.33
2022-08-04T12:35:28.878Z,19.84
2022-08-04T12:37:59.519Z,20.73
2022-08-04T12:40:31.216Z,20.23
2022-08-04T12:43:03.313Z,19.98
2022-08-04T12:45:31.232Z,19.77
2022-08-04T12:48:00.304Z,19.84
2022-08-04T12:50:29.677Z,19.58
2022-08-04T12:53:02.102Z,20.07
2022-08-04T12:55:31.880Z,19.74
2022-08-04T12:58:00.271Z,19.64
2022-08-04T13:00:35.238Z,20.05
2022-08-04T13:03:09.582Z,20.46
2022-08-04T13:05:41.406Z,20.38
2022-08-04T13:08:10.612Z,20.67
2022-08-04T13:10:39.865Z,20.52
2022-08-04T13:13:08.223Z,20.81
2022-08-04T13:18:29.557Z,20.45
2022-08-04T13:24:19.513Z,19.19
2022-08-04T13:26:55.501Z,19.69
2022-08-04T13:29:59.734Z,19.91
2022-08-04T13:30:24.017Z,20.52
2022-08-04T13:30:24.090Z,20.39
2022-08-04T13:32:16.243Z,18.92
2022-08-04T13:34:49.128Z,19.32
2022-08-04T13:37:26.598Z,19.08
2022-08-04T13:39:56.412Z,19.75
2022-08-04T13:42:25.374Z,19.68
2022-08-04T13:44:57.213Z,19.99
2022-08-04T13:47:28.797Z,20.53
2022-08-04T13:50:15.395Z,20.45
2022-08-04T13:52:44.940Z,20.73
2022-08-04T13:55:25.380Z,20.71
2022-08-04T13:57:57.108Z,20.61
2022-08-04T14:00:29.391Z,20.42
2022-08-04T14:03:02.347Z,20.88
2022-08-04T14:05:58.765Z,20.92
2022-08-04T14:08:24.032Z,20.01
2022-08-04T14:10:58.882Z,19.81
2022-08-04T14:13:41.369Z,19.90
2022-08-04T14:16:17.871Z,20.14
2022-08-04T14:18:45.920Z,20.30
2022-08-04T14:21:16.810Z,20.70
2022-08-04T14:23:49.206Z,20.50
2022-08-04T14:26:32.796Z,20.76
2022-08-04T14:29:26.202Z,20.76
2022-08-04T14:32:01.768Z,20.84
2022-08-04T14:34:33.533Z,20.35
2022-08-04T14:37:18.592Z,21.11
2022-08-04T14:40:18.508Z,21.67
2022-08-04T14:42:54.473Z,21.75
2022-08-04T14:45:34.860Z,21.97
2022-08-04T14:48:04.322Z,22.02
2022-08-04T14:50:39.175Z,22.25
2022-08-04T14:53:09.273Z,22.79
2022-08-04T14:55:38.695Z,23.35
2022-08-04T14:58:35.957Z,23.14
2022-08-04T15:00:57.509Z,23.62
2022-08-04T15:03:25.604Z,23.85
2022-08-04T15:05:59.895Z,24.49
2022-08-04T15:08:33.772Z,24.55
2022-08-04T15:11:03.700Z,24.15
2022-08-04T15:13:32.175Z,24.46
2022-08-04T15:16:06.702Z,24.43
2022-08-04T15:18:39.590Z,24.28
2022-08-04T15:21:07.786Z,24.09
2022-08-04T15:23:38.774Z,24.59
2022-08-04T15:26:11.430Z,24.87
2022-08-04T15:28:40.170Z,25.09
2022-08-04T15:31:10.587Z,24.61
2022-08-04T15:33:56.265Z,25.03
2022-08-04T15:36:39.123Z,25.42
2022-08-04T15:39:13.727Z,25.70
2022-08-04T15:41:55.131Z,26.01
2022-08-04T15:44:50.633Z,26.43
2022-08-04T15:47:19.943Z,26.09
2022-08-04T15:49:47.986Z,25.80
2022-08-04T15:52:18.289Z,26.53
2022-08-04T15:54:52.666Z,26.76
2022-08-04T15:57:41.957Z,26.80
2022-08-04T16:00:15.043Z,27.17
2022-08-04T16:02:47.292Z,26.81
2022-08-04T16:05:37.128Z,27.03
2022-08-04T16:08:15.534Z,27.42
2022-08-04T16:10:45.404Z,27.69
2022-08-04T16:13:15.272Z,28.18
2022-08-04T16:15:48.086Z,27.91
2022-08-04T16:18:37.664Z,27.84
2022-08-04T16:21:07.068Z,27.81
2022-08-04T16:24:07.781Z,28.13
2022-08-04T16:26:54.757Z,28.50
2022-08-04T16:29:38.030Z,28.46
2022-08-04T16:32:16.744Z,28.47
2022-08-04T16:34:54.433Z,29.16
2022-08-04T16:37:25.844Z,29.37
2022-08-04T16:40:36.949Z,29.44
2022-08-04T16:43:07.394Z,29.63
2022-08-04T16:45:47.744Z,30.36
2022-08-04T16:48:16.315Z,30.18
2022-08-04T16:50:53.000Z,30.16
2022-08-04T16:53:57.955Z,30.63
2022-08-04T16:56:11.276Z,30.32
2022-08-04T16:58:54.154Z,30.55
2022-08-04T17:01:33.652Z,29.91
2022-08-04T17:04:05.511Z,29.98
2022-08-04T17:06:35.736Z,29.97
2022-08-04T17:11:38.963Z,29.67
2022-08-04T17:14:06.972Z,29.91
2022-08-04T17:16:38.472Z,30.04
2022-08-04T17:19:06.759Z,29.90
2022-08-04T17:21:48.997Z,29.72
2022-08-04T17:28:10.041Z,30.14
2022-08-04T17:29:52.966Z,30.04
2022-08-04T17:32:23.301Z,30.06
2022-08-04T17:34:51.893Z,30.02
2022-08-04T17:37:39.535Z,30.24
2022-08-04T17:40:10.407Z,30.19
2022-08-04T17:42:41.364Z,30.31
2022-08-04T17:45:50.931Z,30.68
2022-08-04T17:48:00.205Z,30.40
2022-08-04T17:50:28.482Z,30.54
2022-08-04T17:53:12.299Z,30.92
2022-08-04T17:55:42.180Z,31.03
2022-08-04T17:58:20.777Z,31.08
2022-08-04T18:01:05.280Z,31.65
2022-08-04T18:03:43.749Z,31.47
2022-08-04T18:06:19.962Z,31.59
2022-08-04T18:08:57.377Z,32.15
2022-08-04T18:11:29.816Z,32.66
2022-08-04T18:14:10.486Z,32.56
2022-08-04T18:16:44.312Z,32.31
2022-08-04T18:19:14.548Z,33.40
2022-08-04T18:21:46.625Z,32.94
2022-08-04T18:24:34.448Z,33.61
2022-08-04T18:27:06.471Z,33.15
2022-08-04T18:29:39.195Z,34.23
2022-08-04T18:32:08.942Z,34.30
2022-08-04T18:38:06.301Z,34.61
2022-08-04T18:40:27.889Z,34.43
2022-08-04T18:43:00.013Z,35.15
2022-08-04T18:45:34.608Z,34.81
2022-08-04T18:48:04.093Z,35.50
2022-08-04T18:51:09.179Z,35.60
2022-08-04T18:53:21.636Z,36.03
2022-08-04T18:55:56.828Z,36.01
2022-08-04T18:58:27.108Z,36.35
2022-08-04T19:01:00.575Z,36.82
2022-08-04T19:03:32.912Z,36.44
2022-08-04T19:06:02.971Z,36.98
2022-08-04T19:08:34.697Z,37.10
2022-08-04T19:11:38.619Z,37.35
2022-08-04T19:13:54.524Z,37.54
2022-08-04T19:16:26.934Z,37.99
2022-08-04T19:19:01.877Z,37.77
2022-08-04T19:22:00.768Z,38.17
2022-08-04T19:24:32.917Z,38.21
2022-08-04T19:27:06.794Z,38.04
2022-08-04T19:29:38.079Z,38.41
2022-08-04T19:32:14.334Z,38.34
2022-08-04T19:34:46.463Z,38.84
2022-08-04T19:37:57.658Z,38.67
2022-08-04T19:40:05.701Z,39.05
2022-08-04T19:42:34.608Z,39.27
2022-08-04T19:45:02.617Z,39.39
2022-08-04T19:48:11.194Z,39.44
2022-08-04T19:50:18.450Z,39.54
2022-08-04T19:52:52.241Z,39.57
2022-08-04T19:55:22.595Z,39.52
2022-08-04T19:58:05.307Z,39.83
2022-08-04T20:00:35.485Z,40.10
2022-08-04T20:03:11.298Z,40.45
2022-08-04T20:05:54.527Z,40.18
2022-08-04T20:08:27.912Z,40.49
2022-08-04T20:10:55.972Z,40.36
2022-08-04T20:13:30.930Z,40.66
2022-08-04T20:16:20.226Z,40.87
2022-08-04T20:18:57.082Z,41.05
2022-08-04T20:21:36.407Z,41.19
2022-08-04T20:24:38.909Z,41.20
2022-08-04T20:27:07.658Z,41.21
2022-08-04T20:29:40.616Z,41.65
2022-08-04T20:32:09.703Z,42.13
2022-08-04T20:34:56.668Z,42.12
2022-08-04T20:37:25.781Z,42.51
2022-08-04T20:40:22.824Z,41.88
2022-08-04T20:42:51.585Z,42.46
2022-08-04T20:45:22.732Z,42.24
2022-08-04T20:47:53.080Z,42.32
2022-08-04T20:50:28.337Z,42.87
2022-08-04T20:52:58.658Z,42.52
2022-08-04T20:55:29.709Z,42.72
2022-08-04T20:58:03.136Z,42.92
2022-08-04T21:00:31.644Z,42.94
2022-08-04T21:03:12.726Z,42.80
2022-08-04T21:05:40.587Z,43.54
2022-08-04T21:08:09.183Z,43.49
2022-08-04T21:10:39.827Z,43.83
2022-08-04T21:13:15.164Z,43.90
2022-08-04T21:15:58.820Z,43.63
2022-08-04T21:18:29.420Z,44.10
2022-08-04T21:20:57.676Z,44.16
2022-08-04T21:23:25.810Z,44.17
2022-08-04T21:25:58.359Z,44.49
2022-08-04T21:28:26.427Z,44.57
2022-08-04T21:30:56.003Z,43.92
2022-08-04T21:33:43.907Z,44.88
2022-08-04T21:36:13.334Z,44.98
2022-08-04T21:38:41.942Z,44.55
2022-08-04T21:41:24.771Z,44.26
2022-08-04T21:43:54.888Z,44.43
2022-08-04T21:46:23.389Z,44.43
2022-08-04T21:48:51.370Z,44.54
2022-08-04T21:51:56.999Z,45.12
2022-08-04T21:54:09.254Z,45.20
2022-08-04T21:56:38.805Z,45.13
2022-08-04T21:59:14.435Z,45.37
2022-08-04T22:01:52.469Z,45.40
2022-08-04T22:04:22.884Z,45.69
2022-08-04T22:06:52.551Z,45.38
2022-08-04T22:09:21.588Z,45.74
2022-08-04T22:11:51.954Z,45.20
2022-08-04T22:14:27.159Z,45.23
2022-08-04T22:16:57.643Z,44.28
2022-08-04T22:19:50.383Z,44.47
2022-08-04T22:22:25.425Z,43.86
2022-08-04T22:24:55.209Z,43.96
2022-08-04T22:27:42.162Z,44.01
2022-08-04T22:30:17.802Z,43.59
2022-08-04T22:32:47.076Z,44.10
2022-08-04T22:35:43.720Z,43.21
2022-08-04T22:38:07.806Z,43.48
2022-08-04T22:40:50.847Z,43.46
2022-08-04T22:43:32.826Z,42.87
2022-08-04T22:46:03.805Z,42.95
2022-08-04T22:48:32.606Z,42.58
2022-08-04T22:51:00.682Z,42.95
2022-08-04T22:53:28.683Z,42.59
2022-08-04T22:56:06.408Z,42.18
2022-08-04T22:58:40.260Z,42.66
2022-08-04T23:01:08.936Z,42.20
2022-08-04T23:03:38.454Z,42.13
2022-08-04T23:06:10.788Z,41.77
2022-08-04T23:08:43.326Z,41.89
2022-08-04T23:11:16.471Z,42.12
2022-08-04T23:13:45.670Z,42.74
2022-08-04T23:16:15.204Z,43.42
2022-08-04T23:18:45.260Z,44.01
2022-08-04T23:21:16.307Z,44.68
2022-08-04T23:23:45.636Z,45.00
2022-08-04T23:26:27.298Z,45.19
2022-08-04T23:28:57.496Z,46.48
2022-08-04T23:31:40.405Z,46.68
2022-08-04T23:34:08.712Z,46.81
2022-08-04T23:36:36.705Z,46.93
2022-08-04T23:39:06.399Z,47.27
2022-08-04T23:41:53.659Z,46.95
2022-08-04T23:44:25.861Z,46.93
2022-08-04T23:47:01.258Z,47.31
2022-08-04T23:49:43.492Z,47.35
2022-08-04T23:52:27.978Z,47.16
2022-08-04T23:54:58.802Z,47.31
2022-08-04T23:58:02.255Z,47.76
